sensor_id;sensor_type;location;lat;lon;timestamp;P1;durP1;ratioP1;P2;durP2;ratioP2
37785;SDS011;23625;48.784;9.336;2024-03-17T00:02:18;18.42;;;7.95;;
37785;SDS011;23625;48.784;9.336;2024-03-17T00:04:44;21.08;;;8.70;;
37785;SDS011;23625;48.784;9.336;2024-03-17T00:07:10;21.00;;;9.20;;
37785;SDS011;23625;48.784;9.336;2024-03-17T00:09:36;19.75;;;9.30;;
37785;SDS011;23625;48.784;9.336;2024-03-17T00:12:02;27.40;;;9.15;;
37785;SDS011;23625;48.784;9.336;2024-03-17T00:14:28;22.85;;;9.77;;
37785;SDS011;23625;48.784;9.336;2024-03-17T00:16:54;29.20;;;9.85;;
37785;SDS011;23625;48.784;9.336;2024-03-17T00:19:19;18.98;;;9.27;;
37785;SDS011;23625;48.784;9.336;2024-03-17T00:21:47;19.58;;;8.88;;
37785;SDS011;23625;48.784;9.336;2024-03-17T00:24:15;24.48;;;9.13;;
37785;SDS011;23625;48.784;9.336;2024-03-17T00:26:41;22.50;;;9.77;;
37785;SDS011;23625;48.784;9.336;2024-03-17T00:29:07;22.10;;;10.48;;
37785;SDS011;23625;48.784;9.336;2024-03-17T00:31:32;22.73;;;9.63;;
37785;SDS011;23625;48.784;9.336;2024-03-17T00:33:58;22.58;;;9.35;;
37785;SDS011;23625;48.784;9.336;2024-03-17T00:36:24;25.38;;;9.50;;
37785;SDS011;23625;48.784;9.336;2024-03-17T00:38:49;26.17;;;10.13;;
37785;SDS011;23625;48.784;9.336;2024-03-17T00:41:17;27.38;;;10.52;;
37785;SDS011;23625;48.784;9.336;2024-03-17T00:43:42;19.40;;;9.23;;
37785;SDS011;23625;48.784;9.336;2024-03-17T00:46:08;24.88;;;9.55;;
37785;SDS011;23625;48.784;9.336;2024-03-17T00:48:33;19.77;;;8.60;;
37785;SDS011;23625;48.784;9.336;2024-03-17T00:50:59;25.52;;;9.45;;
37785;SDS011;23625;48.784;9.336;2024-03-17T00:53:25;21.17;;;9.02;;
37785;SDS011;23625;48.784;9.336;2024-03-17T00:55:54;23.30;;;8.98;;
37785;SDS011;23625;48.784;9.336;2024-03-17T00:58:23;27.88;;;9.32;;
37785;SDS011;23625;48.784;9.336;2024-03-17T01:00:49;23.20;;;9.85;;
37785;SDS011;23625;48.784;9.336;2024-03-17T01:03:15;27.17;;;10.13;;
37785;SDS011;23625;48.784;9.336;2024-03-17T01:05:41;23.85;;;9.15;;
37785;SDS011;23625;48.784;9.336;2024-03-17T01:08:09;20.55;;;9.55;;
37785;SDS011;23625;48.784;9.336;2024-03-17T01:10:38;23.15;;;9.00;;
37785;SDS011;23625;48.784;9.336;2024-03-17T01:13:05;19.40;;;8.65;;
37785;SDS011;23625;48.784;9.336;2024-03-17T01:15:38;21.65;;;9.05;;
37785;SDS011;23625;48.784;9.336;2024-03-17T01:18:04;20.23;;;8.13;;
37785;SDS011;23625;48.784;9.336;2024-03-17T01:20:31;19.00;;;8.65;;
37785;SDS011;23625;48.784;9.336;2024-03-17T01:22:57;25.67;;;9.57;;
37785;SDS011;23625;48.784;9.336;2024-03-17T01:25:22;25.98;;;10.07;;
37785;SDS011;23625;48.784;9.336;2024-03-17T01:27:50;21.73;;;8.40;;
37785;SDS011;23625;48.784;9.336;2024-03-17T01:30:16;19.80;;;9.15;;
37785;SDS011;23625;48.784;9.336;2024-03-17T01:32:42;25.58;;;9.60;;
37785;SDS011;23625;48.784;9.336;2024-03-17T01:35:07;20.48;;;8.73;;
37785;SDS011;23625;48.784;9.336;2024-03-17T01:37:33;18.05;;;8.63;;
37785;SDS011;23625;48.784;9.336;2024-03-17T01:39:59;19.67;;;9.18;;
37785;SDS011;23625;48.784;9.336;2024-03-17T01:42:24;18.50;;;8.52;;
37785;SDS011;23625;48.784;9.336;2024-03-17T01:44:50;20.58;;;8.93;;
37785;SDS011;23625;48.784;9.336;2024-03-17T01:47:16;21.33;;;8.63;;
37785;SDS011;23625;48.784;9.336;2024-03-17T01:49:44;20.83;;;8.75;;
37785;SDS011;23625;48.784;9.336;2024-03-17T01:52:11;17.15;;;7.88;;
37785;SDS011;23625;48.784;9.336;2024-03-17T01:54:37;18.02;;;7.93;;
37785;SDS011;23625;48.784;9.336;2024-03-17T01:57:03;24.27;;;8.93;;
37785;SDS011;23625;48.784;9.336;2024-03-17T01:59:29;22.13;;;8.60;;
37785;SDS011;23625;48.784;9.336;2024-03-17T02:01:54;22.50;;;8.98;;
37785;SDS011;23625;48.784;9.336;2024-03-17T02:04:20;23.10;;;8.95;;
37785;SDS011;23625;48.784;9.336;2024-03-17T02:06:47;16.35;;;7.18;;
37785;SDS011;23625;48.784;9.336;2024-03-17T02:09:12;17.88;;;7.28;;
37785;SDS011;23625;48.784;9.336;2024-03-17T02:11:38;20.67;;;8.30;;
37785;SDS011;23625;48.784;9.336;2024-03-17T02:14:03;17.48;;;8.02;;
37785;SDS011;23625;48.784;9.336;2024-03-17T02:16:31;18.67;;;8.07;;
37785;SDS011;23625;48.784;9.336;2024-03-17T02:18:57;19.80;;;8.98;;
37785;SDS011;23625;48.784;9.336;2024-03-17T02:21:23;19.15;;;7.32;;
37785;SDS011;23625;48.784;9.336;2024-03-17T02:23:52;21.00;;;8.55;;
37785;SDS011;23625;48.784;9.336;2024-03-17T02:26:18;22.35;;;7.72;;
37785;SDS011;23625;48.784;9.336;2024-03-17T02:28:44;19.42;;;7.55;;
37785;SDS011;23625;48.784;9.336;2024-03-17T02:31:11;26.08;;;8.30;;
37785;SDS011;23625;48.784;9.336;2024-03-17T02:33:38;22.10;;;8.90;;
37785;SDS011;23625;48.784;9.336;2024-03-17T02:36:05;16.38;;;7.82;;
37785;SDS011;23625;48.784;9.336;2024-03-17T02:38:40;17.20;;;6.97;;
37785;SDS011;23625;48.784;9.336;2024-03-17T02:41:24;18.50;;;7.43;;
37785;SDS011;23625;48.784;9.336;2024-03-17T02:43:50;19.40;;;6.90;;
37785;SDS011;23625;48.784;9.336;2024-03-17T02:46:16;18.50;;;7.55;;
37785;SDS011;23625;48.784;9.336;2024-03-17T02:48:43;20.27;;;7.57;;
37785;SDS011;23625;48.784;9.336;2024-03-17T02:51:16;18.55;;;7.35;;
37785;SDS011;23625;48.784;9.336;2024-03-17T02:53:44;15.68;;;7.13;;
37785;SDS011;23625;48.784;9.336;2024-03-17T02:56:10;13.43;;;6.45;;
37785;SDS011;23625;48.784;9.336;2024-03-17T02:58:37;15.30;;;6.88;;
37785;SDS011;23625;48.784;9.336;2024-03-17T03:01:04;18.30;;;7.22;;
37785;SDS011;23625;48.784;9.336;2024-03-17T03:03:30;15.80;;;6.38;;
37785;SDS011;23625;48.784;9.336;2024-03-17T03:05:59;17.83;;;7.35;;
37785;SDS011;23625;48.784;9.336;2024-03-17T03:08:36;17.98;;;7.30;;
37785;SDS011;23625;48.784;9.336;2024-03-17T03:11:03;14.38;;;6.95;;
37785;SDS011;23625;48.784;9.336;2024-03-17T03:13:31;20.00;;;7.78;;
37785;SDS011;23625;48.784;9.336;2024-03-17T03:15:56;16.95;;;7.07;;
37785;SDS011;23625;48.784;9.336;2024-03-17T03:18:22;14.23;;;6.40;;
37785;SDS011;23625;48.784;9.336;2024-03-17T03:20:51;25.35;;;7.07;;
37785;SDS011;23625;48.784;9.336;2024-03-17T03:23:20;15.18;;;6.68;;
37785;SDS011;23625;48.784;9.336;2024-03-17T03:25:46;15.55;;;6.50;;
37785;SDS011;23625;48.784;9.336;2024-03-17T03:28:12;14.52;;;6.32;;
37785;SDS011;23625;48.784;9.336;2024-03-17T03:30:38;20.38;;;7.72;;
37785;SDS011;23625;48.784;9.336;2024-03-17T03:33:04;20.38;;;9.40;;
37785;SDS011;23625;48.784;9.336;2024-03-17T03:35:30;20.13;;;7.53;;
37785;SDS011;23625;48.784;9.336;2024-03-17T03:37:56;16.05;;;7.03;;
37785;SDS011;23625;48.784;9.336;2024-03-17T03:40:22;18.35;;;7.43;;
37785;SDS011;23625;48.784;9.336;2024-03-17T03:42:47;21.48;;;7.15;;
37785;SDS011;23625;48.784;9.336;2024-03-17T03:45:13;15.70;;;6.93;;
37785;SDS011;23625;48.784;9.336;2024-03-17T03:47:39;15.88;;;6.38;;
37785;SDS011;23625;48.784;9.336;2024-03-17T03:50:09;13.73;;;5.45;;
37785;SDS011;23625;48.784;9.336;2024-03-17T03:52:35;14.60;;;6.07;;
37785;SDS011;23625;48.784;9.336;2024-03-17T03:55:07;20.88;;;6.90;;
37785;SDS011;23625;48.784;9.336;2024-03-17T03:57:39;19.15;;;7.03;;
37785;SDS011;23625;48.784;9.336;2024-03-17T04:00:07;18.20;;;7.53;;
37785;SDS011;23625;48.784;9.336;2024-03-17T04:02:41;12.95;;;5.72;;
37785;SDS011;23625;48.784;9.336;2024-03-17T04:05:07;21.95;;;5.90;;
37785;SDS011;23625;48.784;9.336;2024-03-17T04:07:34;19.02;;;6.65;;
37785;SDS011;23625;48.784;9.336;2024-03-17T04:10:00;15.82;;;6.47;;
37785;SDS011;23625;48.784;9.336;2024-03-17T04:12:27;18.33;;;6.05;;
37785;SDS011;23625;48.784;9.336;2024-03-17T04:14:53;13.55;;;6.13;;
37785;SDS011;23625;48.784;9.336;2024-03-17T04:17:21;17.77;;;6.68;;
37785;SDS011;23625;48.784;9.336;2024-03-17T04:19:48;13.20;;;5.53;;
37785;SDS011;23625;48.784;9.336;2024-03-17T04:22:14;12.90;;;5.68;;
37785;SDS011;23625;48.784;9.336;2024-03-17T04:24:41;10.48;;;5.25;;
37785;SDS011;23625;48.784;9.336;2024-03-17T04:27:11;12.85;;;5.20;;
37785;SDS011;23625;48.784;9.336;2024-03-17T04:29:36;18.13;;;7.55;;
37785;SDS011;23625;48.784;9.336;2024-03-17T04:32:02;11.18;;;5.18;;
37785;SDS011;23625;48.784;9.336;2024-03-17T04:34:29;12.90;;;5.50;;
37785;SDS011;23625;48.784;9.336;2024-03-17T04:36:56;8.25;;;4.40;;
37785;SDS011;23625;48.784;9.336;2024-03-17T04:39:22;10.65;;;5.38;;
37785;SDS011;23625;48.784;9.336;2024-03-17T04:41:48;12.60;;;4.55;;
37785;SDS011;23625;48.784;9.336;2024-03-17T04:44:15;12.65;;;4.68;;
37785;SDS011;23625;48.784;9.336;2024-03-17T04:46:40;14.65;;;5.15;;
37785;SDS011;23625;48.784;9.336;2024-03-17T04:49:06;12.52;;;4.45;;
37785;SDS011;23625;48.784;9.336;2024-03-17T04:51:33;7.78;;;4.30;;
37785;SDS011;23625;48.784;9.336;2024-03-17T04:53:59;7.78;;;3.92;;
37785;SDS011;23625;48.784;9.336;2024-03-17T04:56:24;11.60;;;4.40;;
37785;SDS011;23625;48.784;9.336;2024-03-17T04:58:50;9.82;;;4.18;;
37785;SDS011;23625;48.784;9.336;2024-03-17T05:01:16;14.52;;;4.43;;
37785;SDS011;23625;48.784;9.336;2024-03-17T05:03:41;11.60;;;4.25;;
37785;SDS011;23625;48.784;9.336;2024-03-17T05:06:07;7.60;;;3.97;;
37785;SDS011;23625;48.784;9.336;2024-03-17T05:08:33;9.52;;;3.88;;
37785;SDS011;23625;48.784;9.336;2024-03-17T05:11:00;10.55;;;4.10;;
37785;SDS011;23625;48.784;9.336;2024-03-17T05:13:33;9.93;;;4.57;;
37785;SDS011;23625;48.784;9.336;2024-03-17T05:16:00;11.85;;;3.92;;
37785;SDS011;23625;48.784;9.336;2024-03-17T05:18:27;9.57;;;4.45;;
37785;SDS011;23625;48.784;9.336;2024-03-17T05:23:25;7.45;;;3.65;;
37785;SDS011;23625;48.784;9.336;2024-03-17T05:25:52;9.45;;;4.47;;
37785;SDS011;23625;48.784;9.336;2024-03-17T05:28:18;10.05;;;4.25;;
37785;SDS011;23625;48.784;9.336;2024-03-17T05:30:44;9.98;;;4.55;;
37785;SDS011;23625;48.784;9.336;2024-03-17T05:33:10;10.07;;;4.97;;
37785;SDS011;23625;48.784;9.336;2024-03-17T05:35:35;9.57;;;5.03;;
37785;SDS011;23625;48.784;9.336;2024-03-17T05:38:01;10.30;;;4.45;;
37785;SDS011;23625;48.784;9.336;2024-03-17T05:40:27;9.10;;;4.45;;
37785;SDS011;23625;48.784;9.336;2024-03-17T05:42:52;12.30;;;5.72;;
37785;SDS011;23625;48.784;9.336;2024-03-17T05:45:18;10.25;;;4.57;;
37785;SDS011;23625;48.784;9.336;2024-03-17T05:47:43;13.63;;;4.78;;
37785;SDS011;23625;48.784;9.336;2024-03-17T05:50:09;7.60;;;4.10;;
37785;SDS011;23625;48.784;9.336;2024-03-17T05:52:35;9.77;;;5.38;;
37785;SDS011;23625;48.784;9.336;2024-03-17T05:55:00;11.35;;;4.35;;
37785;SDS011;23625;48.784;9.336;2024-03-17T05:57:26;10.07;;;4.40;;
37785;SDS011;23625;48.784;9.336;2024-03-17T05:59:53;18.30;;;5.68;;
37785;SDS011;23625;48.784;9.336;2024-03-17T06:02:18;12.20;;;5.68;;
37785;SDS011;23625;48.784;9.336;2024-03-17T06:04:44;9.30;;;4.88;;
37785;SDS011;23625;48.784;9.336;2024-03-17T06:07:09;13.55;;;5.18;;
37785;SDS011;23625;48.784;9.336;2024-03-17T06:09:35;13.90;;;6.10;;
37785;SDS011;23625;48.784;9.336;2024-03-17T06:12:00;12.20;;;5.82;;
37785;SDS011;23625;48.784;9.336;2024-03-17T06:14:26;16.10;;;5.28;;
37785;SDS011;23625;48.784;9.336;2024-03-17T06:16:52;11.57;;;4.95;;
37785;SDS011;23625;48.784;9.336;2024-03-17T06:19:17;8.02;;;4.20;;
37785;SDS011;23625;48.784;9.336;2024-03-17T06:21:43;13.05;;;4.95;;
37785;SDS011;23625;48.784;9.336;2024-03-17T06:24:08;19.58;;;5.28;;
37785;SDS011;23625;48.784;9.336;2024-03-17T06:26:34;13.57;;;4.60;;
37785;SDS011;23625;48.784;9.336;2024-03-17T06:29:00;10.20;;;4.68;;
37785;SDS011;23625;48.784;9.336;2024-03-17T06:31:26;13.93;;;5.55;;
37785;SDS011;23625;48.784;9.336;2024-03-17T06:33:52;12.60;;;4.55;;
37785;SDS011;23625;48.784;9.336;2024-03-17T06:36:17;8.65;;;3.67;;
37785;SDS011;23625;48.784;9.336;2024-03-17T06:38:43;10.45;;;4.35;;
37785;SDS011;23625;48.784;9.336;2024-03-17T06:41:11;10.80;;;4.47;;
37785;SDS011;23625;48.784;9.336;2024-03-17T06:43:40;9.95;;;4.72;;
37785;SDS011;23625;48.784;9.336;2024-03-17T06:46:08;14.48;;;5.60;;
37785;SDS011;23625;48.784;9.336;2024-03-17T06:48:34;14.55;;;5.97;;
37785;SDS011;23625;48.784;9.336;2024-03-17T06:50:59;14.00;;;5.95;;
37785;SDS011;23625;48.784;9.336;2024-03-17T06:53:25;12.10;;;5.65;;
37785;SDS011;23625;48.784;9.336;2024-03-17T06:55:52;14.93;;;5.93;;
37785;SDS011;23625;48.784;9.336;2024-03-17T06:58:19;9.00;;;4.97;;
37785;SDS011;23625;48.784;9.336;2024-03-17T07:00:57;10.68;;;3.88;;
37785;SDS011;23625;48.784;9.336;2024-03-17T07:03:26;9.00;;;4.40;;
37785;SDS011;23625;48.784;9.336;2024-03-17T07:05:57;18.15;;;6.75;;
37785;SDS011;23625;48.784;9.336;2024-03-17T07:08:30;19.42;;;8.25;;
37785;SDS011;23625;48.784;9.336;2024-03-17T07:11:00;14.60;;;7.97;;
37785;SDS011;23625;48.784;9.336;2024-03-17T07:13:30;25.50;;;11.77;;
37785;SDS011;23625;48.784;9.336;2024-03-17T07:15:57;24.75;;;9.98;;
37785;SDS011;23625;48.784;9.336;2024-03-17T07:18:27;19.40;;;9.60;;
37785;SDS011;23625;48.784;9.336;2024-03-17T07:20:59;23.92;;;11.15;;
37785;SDS011;23625;48.784;9.336;2024-03-17T07:23:25;22.67;;;10.95;;
37785;SDS011;23625;48.784;9.336;2024-03-17T07:25:52;27.00;;;11.43;;
37785;SDS011;23625;48.784;9.336;2024-03-17T07:28:19;30.35;;;12.10;;
37785;SDS011;23625;48.784;9.336;2024-03-17T07:30:54;24.83;;;12.13;;
37785;SDS011;23625;48.784;9.336;2024-03-17T07:33:21;23.67;;;11.82;;
37785;SDS011;23625;48.784;9.336;2024-03-17T07:35:48;28.45;;;10.93;;
37785;SDS011;23625;48.784;9.336;2024-03-17T07:38:15;21.67;;;10.20;;
37785;SDS011;23625;48.784;9.336;2024-03-17T07:40:41;22.20;;;11.75;;
37785;SDS011;23625;48.784;9.336;2024-03-17T07:43:07;22.55;;;11.68;;
37785;SDS011;23625;48.784;9.336;2024-03-17T07:45:33;21.35;;;10.50;;
37785;SDS011;23625;48.784;9.336;2024-03-17T07:47:58;21.38;;;9.98;;
37785;SDS011;23625;48.784;9.336;2024-03-17T07:50:24;20.63;;;10.38;;
37785;SDS011;23625;48.784;9.336;2024-03-17T07:52:49;22.83;;;9.10;;
37785;SDS011;23625;48.784;9.336;2024-03-17T07:55:15;31.77;;;14.73;;
37785;SDS011;23625;48.784;9.336;2024-03-17T07:57:41;22.35;;;12.50;;
37785;SDS011;23625;48.784;9.336;2024-03-17T08:00:07;20.48;;;10.63;;
37785;SDS011;23625;48.784;9.336;2024-03-17T08:02:46;19.27;;;9.27;;
37785;SDS011;23625;48.784;9.336;2024-03-17T08:05:12;23.48;;;10.07;;
37785;SDS011;23625;48.784;9.336;2024-03-17T08:07:38;19.73;;;9.68;;
37785;SDS011;23625;48.784;9.336;2024-03-17T08:10:07;19.00;;;8.27;;
37785;SDS011;23625;48.784;9.336;2024-03-17T08:12:32;20.70;;;8.63;;
37785;SDS011;23625;48.784;9.336;2024-03-17T08:14:58;13.88;;;7.72;;
37785;SDS011;23625;48.784;9.336;2024-03-17T08:17:24;13.30;;;7.63;;
37785;SDS011;23625;48.784;9.336;2024-03-17T08:19:50;12.35;;;6.53;;
37785;SDS011;23625;48.784;9.336;2024-03-17T08:22:16;12.15;;;7.10;;
37785;SDS011;23625;48.784;9.336;2024-03-17T08:24:42;17.13;;;7.25;;
37785;SDS011;23625;48.784;9.336;2024-03-17T08:27:08;16.35;;;8.40;;
37785;SDS011;23625;48.784;9.336;2024-03-17T08:29:34;16.20;;;8.38;;
37785;SDS011;23625;48.784;9.336;2024-03-17T08:32:00;13.32;;;7.50;;
37785;SDS011;23625;48.784;9.336;2024-03-17T08:34:25;16.35;;;7.63;;
37785;SDS011;23625;48.784;9.336;2024-03-17T08:36:51;33.38;;;8.10;;
37785;SDS011;23625;48.784;9.336;2024-03-17T08:39:16;13.07;;;6.88;;
37785;SDS011;23625;48.784;9.336;2024-03-17T08:41:42;16.35;;;7.68;;
37785;SDS011;23625;48.784;9.336;2024-03-17T08:44:09;14.65;;;7.40;;
37785;SDS011;23625;48.784;9.336;2024-03-17T08:46:35;15.55;;;8.77;;
37785;SDS011;23625;48.784;9.336;2024-03-17T08:49:00;20.48;;;8.40;;
37785;SDS011;23625;48.784;9.336;2024-03-17T08:51:26;13.63;;;8.27;;
37785;SDS011;23625;48.784;9.336;2024-03-17T08:53:52;15.73;;;9.23;;
37785;SDS011;23625;48.784;9.336;2024-03-17T08:56:18;14.88;;;8.32;;
37785;SDS011;23625;48.784;9.336;2024-03-17T08:58:45;17.73;;;8.35;;
37785;SDS011;23625;48.784;9.336;2024-03-17T09:01:11;12.30;;;7.70;;
37785;SDS011;23625;48.784;9.336;2024-03-17T09:03:40;16.02;;;9.88;;
37785;SDS011;23625;48.784;9.336;2024-03-17T09:06:15;14.65;;;7.78;;
37785;SDS011;23625;48.784;9.336;2024-03-17T09:08:41;16.85;;;8.65;;
37785;SDS011;23625;48.784;9.336;2024-03-17T09:11:11;15.73;;;9.65;;
37785;SDS011;23625;48.784;9.336;2024-03-17T09:13:38;17.10;;;9.20;;
37785;SDS011;23625;48.784;9.336;2024-03-17T09:16:03;16.15;;;9.25;;
37785;SDS011;23625;48.784;9.336;2024-03-17T09:18:30;16.67;;;8.40;;
37785;SDS011;23625;48.784;9.336;2024-03-17T09:23:22;15.85;;;7.05;;
37785;SDS011;23625;48.784;9.336;2024-03-17T09:25:59;13.10;;;6.57;;
37785;SDS011;23625;48.784;9.336;2024-03-17T09:28:35;11.02;;;6.72;;
37785;SDS011;23625;48.784;9.336;2024-03-17T09:31:01;13.23;;;6.63;;
37785;SDS011;23625;48.784;9.336;2024-03-17T09:33:30;15.05;;;6.50;;
37785;SDS011;23625;48.784;9.336;2024-03-17T09:38:22;11.63;;;6.00;;
37785;SDS011;23625;48.784;9.336;2024-03-17T09:40:48;10.73;;;6.05;;
37785;SDS011;23625;48.784;9.336;2024-03-17T09:43:17;10.77;;;6.38;;
37785;SDS011;23625;48.784;9.336;2024-03-17T09:45:43;8.50;;;6.00;;
37785;SDS011;23625;48.784;9.336;2024-03-17T09:48:10;10.10;;;5.80;;
37785;SDS011;23625;48.784;9.336;2024-03-17T09:50:40;12.38;;;6.30;;
37785;SDS011;23625;48.784;9.336;2024-03-17T09:53:06;8.57;;;5.85;;
37785;SDS011;23625;48.784;9.336;2024-03-17T09:58:15;9.93;;;5.93;;
37785;SDS011;23625;48.784;9.336;2024-03-17T10:00:42;11.63;;;6.03;;
37785;SDS011;23625;48.784;9.336;2024-03-17T10:03:08;13.63;;;6.68;;
37785;SDS011;23625;48.784;9.336;2024-03-17T10:05:34;10.95;;;6.15;;
37785;SDS011;23625;48.784;9.336;2024-03-17T10:08:00;11.93;;;5.93;;
37785;SDS011;23625;48.784;9.336;2024-03-17T10:10:25;8.48;;;5.32;;
37785;SDS011;23625;48.784;9.336;2024-03-17T10:12:52;10.35;;;5.25;;
37785;SDS011;23625;48.784;9.336;2024-03-17T10:15:18;10.45;;;5.40;;
37785;SDS011;23625;48.784;9.336;2024-03-17T10:17:45;9.70;;;4.97;;
37785;SDS011;23625;48.784;9.336;2024-03-17T10:20:11;8.98;;;4.82;;
37785;SDS011;23625;48.784;9.336;2024-03-17T10:22:57;9.02;;;4.75;;
37785;SDS011;23625;48.784;9.336;2024-03-17T10:25:29;11.32;;;4.72;;
37785;SDS011;23625;48.784;9.336;2024-03-17T10:27:57;8.82;;;4.95;;
37785;SDS011;23625;48.784;9.336;2024-03-17T10:30:23;8.05;;;4.38;;
37785;SDS011;23625;48.784;9.336;2024-03-17T10:32:54;9.30;;;4.18;;
37785;SDS011;23625;48.784;9.336;2024-03-17T10:35:26;8.02;;;4.60;;
37785;SDS011;23625;48.784;9.336;2024-03-17T10:37:53;8.07;;;4.07;;
37785;SDS011;23625;48.784;9.336;2024-03-17T10:40:24;5.70;;;3.92;;
37785;SDS011;23625;48.784;9.336;2024-03-17T10:42:50;15.02;;;4.63;;
37785;SDS011;23625;48.784;9.336;2024-03-17T10:45:16;6.85;;;4.25;;
37785;SDS011;23625;48.784;9.336;2024-03-17T10:47:43;7.10;;;3.65;;
37785;SDS011;23625;48.784;9.336;2024-03-17T10:50:16;8.23;;;3.25;;
37785;SDS011;23625;48.784;9.336;2024-03-17T10:52:46;7.38;;;3.58;;
37785;SDS011;23625;48.784;9.336;2024-03-17T10:55:19;5.82;;;3.35;;
37785;SDS011;23625;48.784;9.336;2024-03-17T10:57:47;7.22;;;3.10;;
37785;SDS011;23625;48.784;9.336;2024-03-17T11:00:18;6.60;;;3.63;;
37785;SDS011;23625;48.784;9.336;2024-03-17T11:02:47;5.93;;;3.30;;
37785;SDS011;23625;48.784;9.336;2024-03-17T11:05:14;11.07;;;3.60;;
37785;SDS011;23625;48.784;9.336;2024-03-17T11:07:43;8.77;;;3.40;;
37785;SDS011;23625;48.784;9.336;2024-03-17T11:10:19;4.00;;;2.90;;
37785;SDS011;23625;48.784;9.336;2024-03-17T11:12:50;4.63;;;2.90;;
37785;SDS011;23625;48.784;9.336;2024-03-17T11:17:50;9.70;;;3.00;;
37785;SDS011;23625;48.784;9.336;2024-03-17T11:20:19;4.28;;;2.75;;
37785;SDS011;23625;48.784;9.336;2024-03-17T11:22:51;5.93;;;3.03;;
37785;SDS011;23625;48.784;9.336;2024-03-17T11:27:52;4.93;;;2.92;;
37785;SDS011;23625;48.784;9.336;2024-03-17T11:41:36;6.43;;;3.67;;
37785;SDS011;23625;48.784;9.336;2024-03-17T11:47:01;6.40;;;3.05;;
37785;SDS011;23625;48.784;9.336;2024-03-17T11:49:35;5.43;;;3.33;;
37785;SDS011;23625;48.784;9.336;2024-03-17T11:54:33;6.22;;;2.55;;
37785;SDS011;23625;48.784;9.336;2024-03-17T11:57:06;6.95;;;3.00;;
37785;SDS011;23625;48.784;9.336;2024-03-17T11:59:34;6.65;;;2.63;;
37785;SDS011;23625;48.784;9.336;2024-03-17T12:02:02;7.15;;;2.90;;
37785;SDS011;23625;48.784;9.336;2024-03-17T12:04:38;7.07;;;2.97;;
37785;SDS011;23625;48.784;9.336;2024-03-17T12:07:07;3.58;;;3.08;;
37785;SDS011;23625;48.784;9.336;2024-03-17T12:09:39;4.88;;;2.83;;
37785;SDS011;23625;48.784;9.336;2024-03-17T12:12:11;6.22;;;2.78;;
37785;SDS011;23625;48.784;9.336;2024-03-17T12:14:44;6.95;;;2.45;;
37785;SDS011;23625;48.784;9.336;2024-03-17T12:17:11;5.75;;;3.80;;
37785;SDS011;23625;48.784;9.336;2024-03-17T12:19:39;6.18;;;3.20;;
37785;SDS011;23625;48.784;9.336;2024-03-17T12:22:07;7.57;;;3.30;;
37785;SDS011;23625;48.784;9.336;2024-03-17T12:24:34;8.60;;;3.13;;
37785;SDS011;23625;48.784;9.336;2024-03-17T12:27:01;8.00;;;3.88;;
37785;SDS011;23625;48.784;9.336;2024-03-17T12:32:05;4.30;;;2.90;;
37785;SDS011;23625;48.784;9.336;2024-03-17T12:34:32;13.40;;;6.38;;
37785;SDS011;23625;48.784;9.336;2024-03-17T12:36:59;6.75;;;3.30;;
37785;SDS011;23625;48.784;9.336;2024-03-17T12:39:26;8.85;;;3.53;;
37785;SDS011;23625;48.784;9.336;2024-03-17T12:44:31;7.43;;;2.47;;
37785;SDS011;23625;48.784;9.336;2024-03-17T12:46:59;4.47;;;2.17;;
37785;SDS011;23625;48.784;9.336;2024-03-17T12:49:29;6.55;;;2.40;;
37785;SDS011;23625;48.784;9.336;2024-03-17T12:51:56;7.90;;;2.90;;
37785;SDS011;23625;48.784;9.336;2024-03-17T12:54:25;5.30;;;2.75;;
37785;SDS011;23625;48.784;9.336;2024-03-17T12:57:03;5.57;;;2.30;;
37785;SDS011;23625;48.784;9.336;2024-03-17T12:59:48;6.60;;;3.07;;
37785;SDS011;23625;48.784;9.336;2024-03-17T13:02:32;5.10;;;2.40;;
37785;SDS011;23625;48.784;9.336;2024-03-17T13:07:38;6.45;;;3.20;;
37785;SDS011;23625;48.784;9.336;2024-03-17T13:10:04;6.72;;;2.30;;
37785;SDS011;23625;48.784;9.336;2024-03-17T13:12:32;7.65;;;3.17;;
37785;SDS011;23625;48.784;9.336;2024-03-17T13:15:01;4.63;;;2.85;;
37785;SDS011;23625;48.784;9.336;2024-03-17T13:17:26;6.00;;;3.88;;
37785;SDS011;23625;48.784;9.336;2024-03-17T13:19:54;4.75;;;2.50;;
37785;SDS011;23625;48.784;9.336;2024-03-17T13:22:20;7.97;;;2.70;;
37785;SDS011;23625;48.784;9.336;2024-03-17T13:24:45;5.50;;;2.80;;
37785;SDS011;23625;48.784;9.336;2024-03-17T13:27:12;8.90;;;3.08;;
37785;SDS011;23625;48.784;9.336;2024-03-17T13:29:39;5.13;;;2.78;;
37785;SDS011;23625;48.784;9.336;2024-03-17T13:32:08;5.78;;;3.25;;
37785;SDS011;23625;48.784;9.336;2024-03-17T13:34:34;16.35;;;3.05;;
37785;SDS011;23625;48.784;9.336;2024-03-17T13:37:00;5.15;;;2.53;;
37785;SDS011;23625;48.784;9.336;2024-03-17T13:39:32;6.15;;;2.67;;
37785;SDS011;23625;48.784;9.336;2024-03-17T13:41:58;6.30;;;2.88;;
37785;SDS011;23625;48.784;9.336;2024-03-17T13:44:31;8.48;;;2.50;;
37785;SDS011;23625;48.784;9.336;2024-03-17T13:46:57;5.47;;;3.10;;
37785;SDS011;23625;48.784;9.336;2024-03-17T13:49:24;5.05;;;2.67;;
37785;SDS011;23625;48.784;9.336;2024-03-17T13:51:56;4.95;;;2.45;;
37785;SDS011;23625;48.784;9.336;2024-03-17T13:54:22;5.35;;;3.08;;
37785;SDS011;23625;48.784;9.336;2024-03-17T13:56:48;9.52;;;3.70;;
37785;SDS011;23625;48.784;9.336;2024-03-17T13:59:14;6.03;;;2.88;;
37785;SDS011;23625;48.784;9.336;2024-03-17T14:01:40;4.68;;;2.60;;
37785;SDS011;23625;48.784;9.336;2024-03-17T14:04:16;5.63;;;2.80;;
37785;SDS011;23625;48.784;9.336;2024-03-17T14:06:45;9.40;;;3.17;;
37785;SDS011;23625;48.784;9.336;2024-03-17T14:09:11;10.32;;;2.63;;
37785;SDS011;23625;48.784;9.336;2024-03-17T14:11:40;4.78;;;2.92;;
37785;SDS011;23625;48.784;9.336;2024-03-17T14:14:06;6.80;;;2.45;;
37785;SDS011;23625;48.784;9.336;2024-03-17T14:16:33;8.18;;;3.40;;
37785;SDS011;23625;48.784;9.336;2024-03-17T14:18:59;4.95;;;2.90;;
37785;SDS011;23625;48.784;9.336;2024-03-17T14:21:25;8.02;;;2.85;;
37785;SDS011;23625;48.784;9.336;2024-03-17T14:23:52;4.43;;;2.50;;
37785;SDS011;23625;48.784;9.336;2024-03-17T14:26:18;9.00;;;3.05;;
37785;SDS011;23625;48.784;9.336;2024-03-17T14:28:44;4.93;;;2.75;;
37785;SDS011;23625;48.784;9.336;2024-03-17T14:31:10;5.68;;;2.60;;
37785;SDS011;23625;48.784;9.336;2024-03-17T14:33:35;5.50;;;2.67;;
37785;SDS011;23625;48.784;9.336;2024-03-17T14:36:01;5.35;;;2.97;;
37785;SDS011;23625;48.784;9.336;2024-03-17T14:38:26;6.25;;;2.80;;
37785;SDS011;23625;48.784;9.336;2024-03-17T14:40:52;5.68;;;2.70;;
37785;SDS011;23625;48.784;9.336;2024-03-17T14:43:18;4.93;;;2.90;;
37785;SDS011;23625;48.784;9.336;2024-03-17T14:45:44;8.20;;;2.75;;
37785;SDS011;23625;48.784;9.336;2024-03-17T14:48:10;6.53;;;3.10;;
37785;SDS011;23625;48.784;9.336;2024-03-17T14:50:38;6.15;;;2.58;;
37785;SDS011;23625;48.784;9.336;2024-03-17T14:53:06;6.22;;;2.72;;
37785;SDS011;23625;48.784;9.336;2024-03-17T14:55:32;4.70;;;2.80;;
37785;SDS011;23625;48.784;9.336;2024-03-17T14:57:58;5.28;;;2.45;;
37785;SDS011;23625;48.784;9.336;2024-03-17T15:00:27;4.60;;;2.90;;
37785;SDS011;23625;48.784;9.336;2024-03-17T15:02:55;6.53;;;2.88;;
37785;SDS011;23625;48.784;9.336;2024-03-17T15:05:21;20.73;;;10.15;;
37785;SDS011;23625;48.784;9.336;2024-03-17T15:07:48;5.05;;;2.88;;
37785;SDS011;23625;48.784;9.336;2024-03-17T15:10:14;4.97;;;2.63;;
37785;SDS011;23625;48.784;9.336;2024-03-17T15:12:41;5.22;;;2.45;;
37785;SDS011;23625;48.784;9.336;2024-03-17T15:15:07;10.10;;;2.85;;
37785;SDS011;23625;48.784;9.336;2024-03-17T15:17:33;4.57;;;2.40;;
37785;SDS011;23625;48.784;9.336;2024-03-17T15:19:59;6.75;;;2.50;;